createdAt,value
2018-04-08T00:01:57.221Z,6.77
2018-04-08T00:04:23.355Z,6.97
2018-04-08T00:06:49.541Z,7.13
2018-04-08T00:09:16.440Z,7.00
2018-04-08T00:11:42.594Z,6.97
2018-04-08T00:14:08.717Z,7.10
2018-04-08T00:16:34.859Z,7.17
2018-04-08T00:19:01.739Z,7.17
2018-04-08T00:21:27.900Z,7.43
2018-04-08T00:23:54.111Z,7.17
2018-04-08T00:26:20.356Z,7.33
2018-04-08T00:28:46.525Z,6.90
2018-04-08T00:31:13.445Z,7.47
2018-04-08T00:33:39.656Z,8.73
2018-04-08T00:36:05.804Z,7.77
2018-04-08T00:38:31.952Z,7.73
2018-04-08T00:40:58.896Z,7.43
2018-04-08T00:43:25.790Z,8.27
2018-04-08T00:45:51.996Z,8.83
2018-04-08T00:48:18.121Z,7.93
2018-04-08T00:50:44.292Z,8.63
2018-04-08T00:53:10.512Z,8.77
2018-04-08T00:55:36.661Z,9.03
2018-04-08T00:58:03.579Z,8.23
2018-04-08T01:00:29.712Z,8.23
2018-04-08T01:02:55.909Z,8.27
2018-04-08T01:05:22.066Z,8.33
2018-04-08T01:07:48.257Z,8.73
2018-04-08T01:10:14.467Z,7.60
2018-04-08T01:12:40.688Z,8.07
2018-04-08T01:15:07.545Z,7.40
2018-04-08T01:17:33.766Z,9.20
2018-04-08T01:19:59.896Z,8.60
2018-04-08T01:22:26.826Z,8.30
2018-04-08T01:24:53.685Z,7.57
2018-04-08T01:27:19.812Z,8.50
2018-04-08T01:29:45.944Z,8.43
2018-04-08T01:32:12.098Z,9.00
2018-04-08T01:34:38.246Z,8.10
2018-04-08T01:37:04.485Z,8.17
2018-04-08T01:39:30.688Z,7.93
2018-04-08T01:41:56.867Z,7.90
2018-04-08T01:44:23.073Z,7.70
2018-04-08T01:46:49.242Z,8.40
2018-04-08T01:49:15.424Z,7.67
2018-04-08T01:51:42.323Z,9.00
2018-04-08T01:54:09.203Z,7.90
2018-04-08T01:56:36.078Z,8.67
2018-04-08T01:59:02.994Z,7.97
2018-04-08T02:01:29.189Z,9.20
2018-04-08T02:03:55.459Z,7.80
2018-04-08T02:06:22.384Z,8.80
2018-04-08T02:08:48.525Z,8.77
2018-04-08T02:11:14.739Z,8.83
2018-04-08T02:13:40.885Z,9.40
2018-04-08T02:16:07.055Z,9.13
2018-04-08T02:18:33.241Z,9.00
2018-04-08T02:21:00.134Z,9.03
2018-04-08T02:23:26.263Z,9.70
2018-04-08T02:25:52.417Z,8.93
2018-04-08T02:28:18.612Z,8.77
2018-04-08T02:30:44.822Z,7.57
2018-04-08T02:33:11.005Z,7.23
2018-04-08T02:35:37.200Z,8.30
2018-04-08T02:38:03.341Z,8.37
2018-04-08T02:40:29.480Z,9.17
2018-04-08T02:42:55.674Z,8.47
2018-04-08T02:45:21.827Z,8.40
2018-04-08T02:47:47.969Z,9.73
2018-04-08T02:50:14.135Z,8.93
2018-04-08T02:52:40.338Z,8.97
2018-04-08T02:55:07.253Z,8.60
2018-04-08T02:57:33.416Z,10.13
2018-04-08T03:00:00.289Z,9.17
2018-04-08T03:02:26.425Z,9.30
2018-04-08T03:04:52.642Z,9.27
2018-04-08T03:07:18.759Z,9.33
2018-04-08T03:09:44.942Z,8.70
2018-04-08T03:12:11.062Z,9.33
2018-04-08T03:14:37.251Z,9.30
2018-04-08T03:17:03.374Z,9.80
2018-04-08T03:19:29.521Z,8.53
2018-04-08T03:21:55.636Z,9.60
2018-04-08T03:24:21.777Z,9.57
2018-04-08T03:26:47.881Z,9.23
2018-04-08T03:29:14.047Z,9.10
2018-04-08T03:31:40.174Z,9.23
2018-04-08T03:34:06.357Z,9.93
2018-04-08T03:36:32.514Z,9.30
2018-04-08T03:38:58.653Z,8.93
2018-04-08T03:41:24.816Z,9.83
2018-04-08T03:43:51.736Z,9.63
2018-04-08T03:46:17.913Z,9.83
2018-04-08T03:48:44.001Z,9.70
2018-04-08T03:51:10.876Z,9.10
2018-04-08T03:53:37.028Z,8.90
2018-04-08T03:56:03.172Z,9.60
2018-04-08T03:58:29.315Z,8.90
2018-04-08T04:00:56.277Z,9.73
2018-04-08T04:03:23.188Z,10.00
2018-04-08T04:05:49.299Z,9.57
2018-04-08T04:08:15.449Z,10.03
2018-04-08T04:10:41.620Z,10.10
2018-04-08T04:13:07.840Z,9.40
2018-04-08T04:15:34.044Z,9.73
2018-04-08T04:18:00.942Z,10.30
2018-04-08T04:23:51.710Z,9.60
2018-04-08T04:26:33.500Z,10.47
2018-04-08T04:28:59.687Z,11.33
2018-04-08T04:31:25.912Z,10.90
2018-04-08T04:33:52.030Z,10.00
2018-04-08T04:36:18.156Z,10.20
2018-04-08T04:38:44.273Z,10.27
2018-04-08T04:41:10.398Z,10.50
2018-04-08T04:43:36.554Z,10.67
2018-04-08T04:46:02.648Z,10.33
2018-04-08T04:48:28.823Z,10.80
2018-04-08T04:50:54.979Z,10.80
2018-04-08T04:53:21.862Z,11.10
2018-04-08T04:55:48.033Z,10.80
2018-04-08T04:58:14.169Z,10.77
2018-04-08T05:00:41.119Z,10.70
2018-04-08T05:03:08.043Z,10.40
2018-04-08T05:05:34.210Z,10.73
2018-04-08T05:08:00.371Z,10.70
2018-04-08T05:10:26.485Z,10.80
2018-04-08T05:12:52.626Z,12.27
2018-04-08T05:15:18.726Z,11.90
2018-04-08T05:17:44.879Z,11.97
2018-04-08T05:20:11.028Z,12.40
2018-04-08T05:22:37.260Z,12.50
2018-04-08T05:25:04.236Z,12.90
2018-04-08T05:27:30.363Z,14.40
2018-04-08T05:29:56.476Z,14.00
2018-04-08T05:32:23.356Z,13.87
2018-04-08T05:34:49.456Z,15.13
2018-04-08T05:37:15.603Z,13.50
2018-04-08T05:39:41.728Z,14.23
2018-04-08T05:42:07.879Z,14.00
2018-04-08T05:44:33.979Z,14.50
2018-04-08T05:47:00.212Z,13.90
2018-04-08T05:49:26.397Z,13.77
2018-04-08T05:51:53.252Z,15.30
2018-04-08T05:54:20.131Z,15.30
2018-04-08T05:56:46.258Z,13.90
2018-04-08T05:59:12.420Z,16.50
2018-04-08T06:01:38.553Z,14.93
2018-04-08T06:04:04.704Z,14.43
2018-04-08T06:06:30.909Z,16.03
2018-04-08T06:08:57.888Z,16.50
2018-04-08T06:11:24.060Z,16.47
2018-04-08T06:13:50.215Z,16.67
2018-04-08T06:16:17.078Z,16.93
2018-04-08T06:18:43.342Z,16.53
2018-04-08T06:21:09.528Z,17.40
2018-04-08T06:23:35.707Z,19.10
2018-04-08T06:26:01.841Z,18.53
2018-04-08T06:28:28.025Z,16.90
2018-04-08T06:30:54.193Z,18.40
2018-04-08T06:33:20.348Z,19.53
2018-04-08T06:35:47.301Z,19.33
2018-04-08T06:38:13.460Z,19.20
2018-04-08T06:40:39.696Z,17.47
2018-04-08T06:43:05.884Z,17.77
2018-04-08T06:45:32.846Z,17.47
2018-04-08T06:47:58.963Z,19.30
2018-04-08T06:50:25.940Z,17.73
2018-04-08T06:52:52.129Z,18.50
2018-04-08T06:55:19.043Z,18.90
2018-04-08T06:57:45.189Z,20.00
2018-04-08T07:00:12.154Z,18.77
2018-04-08T07:02:39.007Z,18.80
2018-04-08T07:05:05.246Z,19.33
2018-04-08T07:07:31.434Z,16.80
2018-04-08T07:09:58.399Z,17.93
2018-04-08T07:12:24.613Z,19.20
2018-04-08T07:14:51.538Z,17.40
2018-04-08T07:17:17.719Z,17.97
2018-04-08T07:19:43.913Z,18.00
2018-04-08T07:22:10.835Z,17.83
2018-04-08T07:24:37.068Z,17.77
2018-04-08T07:27:03.244Z,18.17
2018-04-08T07:29:29.368Z,17.20
2018-04-08T07:31:55.577Z,17.23
2018-04-08T07:34:21.759Z,17.30
2018-04-08T07:36:47.977Z,16.70
2018-04-08T07:39:14.121Z,16.70
2018-04-08T07:41:40.268Z,17.10
2018-04-08T07:44:07.206Z,16.67
2018-04-08T07:46:33.367Z,17.27
2018-04-08T07:48:59.613Z,16.00
2018-04-08T07:51:25.776Z,16.30
2018-04-08T07:53:51.965Z,15.93
2018-04-08T07:56:18.098Z,15.30
2018-04-08T07:58:44.260Z,16.43
2018-04-08T08:01:10.455Z,15.90
2018-04-08T08:03:36.643Z,14.77
2018-04-08T08:06:02.875Z,16.67
2018-04-08T08:08:29.015Z,15.30
2018-04-08T08:10:55.141Z,15.97
2018-04-08T08:13:21.249Z,16.33
2018-04-08T08:15:48.225Z,16.07
2018-04-08T08:18:14.438Z,15.23
2018-04-08T08:20:40.588Z,14.60
2018-04-08T08:23:06.828Z,14.63
2018-04-08T08:25:32.949Z,15.57
2018-04-08T08:27:59.090Z,14.77
2018-04-08T08:30:25.230Z,14.80
2018-04-08T08:32:51.436Z,15.60
2018-04-08T08:35:17.564Z,14.37
2018-04-08T08:37:43.760Z,14.97
2018-04-08T08:40:09.897Z,13.37
2018-04-08T08:42:36.098Z,15.40
2018-04-08T08:45:02.284Z,14.40
2018-04-08T08:47:28.475Z,15.10
2018-04-08T08:49:54.640Z,14.30
2018-04-08T08:52:20.842Z,14.30
2018-04-08T08:54:47.038Z,14.27
2018-04-08T08:57:13.116Z,13.47
2018-04-08T08:59:39.257Z,14.17
2018-04-08T09:02:05.432Z,13.53
2018-04-08T09:04:31.738Z,14.93
2018-04-08T09:06:57.922Z,14.57
2018-04-08T09:09:24.112Z,14.40
2018-04-08T09:11:50.313Z,12.20
2018-04-08T09:14:17.243Z,11.97
2018-04-08T09:16:44.144Z,13.43
2018-04-08T09:19:11.088Z,11.77
2018-04-08T09:21:43.433Z,11.80
2018-04-08T09:24:09.636Z,12.67
2018-04-08T09:26:36.531Z,12.63
2018-04-08T09:29:02.700Z,11.77
2018-04-08T09:31:29.626Z,10.60
2018-04-08T09:33:55.860Z,10.80
2018-04-08T09:36:22.085Z,10.83
2018-04-08T09:38:48.193Z,10.70
2018-04-08T09:41:14.327Z,10.60
2018-04-08T09:43:40.515Z,10.17
2018-04-08T09:46:06.719Z,11.53
2018-04-08T09:48:33.591Z,11.50
2018-04-08T09:50:59.719Z,11.37
2018-04-08T09:53:25.916Z,12.60
2018-04-08T09:55:52.820Z,11.13
2018-04-08T09:58:21.008Z,10.97
2018-04-08T10:03:50.622Z,11.20
2018-04-08T10:06:16.840Z,11.57
2018-04-08T10:08:42.972Z,10.70
2018-04-08T10:11:09.103Z,9.60
2018-04-08T10:13:35.257Z,9.90
2018-04-08T10:16:01.413Z,9.00
2018-04-08T10:18:28.376Z,10.83
2018-04-08T10:20:54.564Z,9.77
2018-04-08T10:23:21.489Z,10.40
2018-04-08T10:25:47.668Z,10.00
2018-04-08T10:28:13.818Z,10.30
2018-04-08T10:30:39.991Z,9.53
2018-04-08T10:33:06.902Z,8.80
2018-04-08T10:35:33.116Z,10.43
2018-04-08T10:37:59.291Z,10.27
2018-04-08T10:40:25.433Z,9.00
2018-04-08T10:42:52.347Z,10.90
2018-04-08T10:45:18.535Z,10.30
2018-04-08T10:47:44.716Z,10.90
2018-04-08T10:50:10.933Z,11.77
2018-04-08T10:52:37.114Z,10.20
2018-04-08T10:55:03.359Z,9.47
2018-04-08T10:57:29.548Z,9.90
2018-04-08T10:59:56.425Z,8.93
2018-04-08T11:02:22.570Z,9.30
2018-04-08T11:04:48.723Z,9.30
2018-04-08T11:07:14.910Z,8.70
2018-04-08T11:09:41.076Z,9.07
2018-04-08T11:12:07.944Z,9.77
2018-04-08T11:14:34.120Z,8.80
2018-04-08T11:17:00.232Z,9.90
2018-04-08T11:19:26.402Z,10.00
2018-04-08T11:21:53.323Z,8.73
2018-04-08T11:24:19.470Z,9.03
2018-04-08T11:26:45.594Z,9.50
2018-04-08T11:29:11.803Z,9.40
2018-04-08T11:31:38.010Z,8.70
2018-04-08T11:34:04.158Z,8.83
2018-04-08T11:36:30.319Z,9.50
2018-04-08T11:38:57.260Z,8.77
2018-04-08T11:41:24.140Z,9.40
2018-04-08T11:43:50.257Z,8.40
2018-04-08T11:46:16.469Z,8.20
2018-04-08T11:48:42.660Z,9.33
2018-04-08T11:51:08.789Z,8.80
2018-04-08T11:53:34.996Z,7.90
2018-04-08T11:56:01.139Z,8.43
2018-04-08T11:58:27.327Z,8.40
2018-04-08T12:00:53.512Z,7.97
2018-04-08T12:03:20.476Z,8.13
2018-04-08T12:05:46.645Z,8.60
2018-04-08T12:08:12.833Z,8.60
2018-04-08T12:10:39.070Z,7.03
2018-04-08T12:13:05.311Z,7.53
2018-04-08T12:15:31.515Z,7.63
2018-04-08T12:17:57.677Z,8.03
2018-04-08T12:20:23.876Z,7.90
2018-04-08T12:22:50.110Z,7.43
2018-04-08T12:25:16.269Z,7.90
2018-04-08T12:27:42.425Z,7.50
2018-04-08T12:30:09.357Z,7.30
2018-04-08T12:32:35.517Z,7.47
2018-04-08T12:35:02.429Z,8.50
2018-04-08T12:37:28.594Z,8.20
2018-04-08T12:39:55.534Z,7.53
2018-04-08T12:42:21.689Z,6.90
2018-04-08T12:44:47.845Z,6.90
2018-04-08T12:47:14.021Z,8.37
2018-04-08T12:49:40.221Z,7.20
2018-04-08T12:52:07.135Z,7.77
2018-04-08T12:54:33.313Z,7.37
2018-04-08T12:57:00.185Z,6.20
2018-04-08T12:59:26.402Z,6.40
2018-04-08T13:01:52.628Z,7.20
2018-04-08T13:04:18.816Z,6.57
2018-04-08T13:06:44.984Z,6.70
2018-04-08T13:09:11.172Z,6.87
2018-04-08T13:11:37.342Z,6.30
2018-04-08T13:14:03.769Z,6.93
2018-04-08T13:16:30.026Z,6.67
2018-04-08T13:18:56.276Z,6.33
2018-04-08T13:21:22.519Z,5.93
2018-04-08T13:23:49.484Z,6.57
2018-04-08T13:26:16.411Z,6.00
2018-04-08T13:28:43.306Z,6.90
2018-04-08T13:31:09.519Z,6.67
2018-04-08T13:33:35.745Z,17.83
2018-04-08T13:36:01.933Z,7.33
2018-04-08T13:38:28.101Z,10.00
2018-04-08T13:40:54.269Z,5.67
2018-04-08T13:43:20.433Z,5.47
2018-04-08T13:45:47.276Z,5.90
2018-04-08T13:48:14.176Z,5.90
2018-04-08T13:50:40.346Z,5.73
2018-04-08T13:53:07.253Z,5.80
2018-04-08T13:55:33.392Z,5.33
2018-04-08T13:57:59.550Z,5.97
2018-04-08T14:00:26.450Z,5.30
2018-04-08T14:02:52.587Z,6.00
2018-04-08T14:05:18.736Z,5.50
2018-04-08T14:07:45.656Z,6.07
2018-04-08T14:10:11.833Z,5.70
2018-04-08T14:12:38.010Z,5.67
2018-04-08T14:15:04.217Z,5.90
2018-04-08T14:17:30.372Z,4.40
2018-04-08T14:19:56.506Z,5.50
2018-04-08T14:22:22.604Z,4.67
2018-04-08T14:24:48.815Z,5.33
2018-04-08T14:27:14.941Z,5.87
2018-04-08T14:29:41.076Z,5.73
2018-04-08T14:32:07.285Z,5.47
2018-04-08T14:34:33.467Z,5.23
2018-04-08T14:37:00.458Z,5.13
2018-04-08T14:39:26.653Z,5.97
2018-04-08T14:41:53.704Z,5.80
2018-04-08T14:44:20.576Z,5.63
2018-04-08T14:46:46.753Z,4.97
2018-04-08T14:49:12.885Z,5.90
2018-04-08T14:51:39.077Z,5.40
2018-04-08T14:54:05.279Z,4.80
2018-04-08T14:56:31.452Z,5.37
2018-04-08T14:58:57.628Z,4.43
2018-04-08T15:01:24.024Z,4.63
2018-04-08T15:03:50.888Z,5.57
2018-04-08T15:06:17.852Z,4.50
2018-04-08T15:08:44.089Z,5.00
2018-04-08T15:11:10.294Z,4.43
2018-04-08T15:13:36.535Z,4.70
2018-04-08T15:16:02.753Z,4.90
2018-04-08T15:18:29.017Z,4.70
2018-04-08T15:20:55.142Z,4.90
2018-04-08T15:23:21.328Z,5.13
2018-04-08T15:25:47.445Z,7.33
2018-04-08T15:28:14.383Z,5.40
2018-04-08T15:30:41.338Z,5.80
2018-04-08T15:33:08.353Z,9.73
2018-04-08T15:35:34.454Z,5.07
2018-04-08T15:38:00.558Z,5.47
2018-04-08T15:40:26.772Z,5.63
2018-04-08T15:42:53.014Z,5.10
2018-04-08T15:45:19.172Z,5.03
2018-04-08T15:47:45.327Z,4.70
2018-04-08T15:50:12.291Z,5.00
2018-04-08T15:52:38.447Z,4.37
2018-04-08T15:55:04.652Z,5.20
2018-04-08T15:57:30.874Z,5.10
2018-04-08T15:59:57.881Z,4.90
2018-04-08T16:02:24.037Z,4.60
2018-04-08T16:04:50.931Z,5.53
2018-04-08T16:07:17.096Z,5.47
2018-04-08T16:09:43.292Z,4.93
2018-04-08T16:12:09.435Z,5.17
2018-04-08T16:14:35.619Z,4.90
2018-04-08T16:17:01.746Z,5.20
2018-04-08T16:19:27.905Z,5.00
2018-04-08T16:21:54.108Z,5.30
2018-04-08T16:24:20.235Z,6.90
2018-04-08T16:26:46.388Z,5.80
2018-04-08T16:29:12.602Z,6.20
2018-04-08T16:31:38.815Z,5.80
2018-04-08T16:34:04.981Z,5.30
2018-04-08T16:36:31.177Z,8.37
2018-04-08T16:38:57.283Z,6.50
2018-04-08T16:41:23.433Z,7.03
2018-04-08T16:43:49.620Z,5.60
2018-04-08T16:46:16.522Z,5.40
2018-04-08T16:48:42.686Z,6.23
2018-04-08T16:51:09.633Z,6.43
2018-04-08T16:53:36.508Z,5.60
2018-04-08T16:56:02.680Z,6.70
2018-04-08T16:58:28.897Z,6.60
2018-04-08T17:00:55.149Z,6.70
2018-04-08T17:03:22.057Z,6.90
2018-04-08T17:05:48.165Z,6.40
2018-04-08T17:08:14.344Z,5.97
2018-04-08T17:10:41.270Z,5.53
2018-04-08T17:13:07.397Z,6.00
2018-04-08T17:15:33.569Z,5.70
2018-04-08T17:17:59.804Z,6.30
2018-04-08T17:20:26.043Z,6.40
2018-04-08T17:22:52.295Z,6.47
2018-04-08T17:25:18.521Z,7.40
2018-04-08T17:27:44.823Z,7.53
2018-04-08T17:30:11.018Z,6.73
2018-04-08T17:32:37.970Z,7.37
2018-04-08T17:35:04.873Z,6.70
2018-04-08T17:37:31.073Z,6.70
2018-04-08T17:39:57.238Z,6.90
2018-04-08T17:42:23.432Z,7.63
2018-04-08T17:44:49.617Z,6.90
2018-04-08T17:47:16.593Z,8.10
2018-04-08T17:49:42.833Z,6.80
2018-04-08T17:52:09.001Z,7.73
2018-04-08T17:54:35.146Z,7.10
2018-04-08T17:57:02.103Z,6.87
2018-04-08T17:59:29.015Z,8.03
2018-04-08T18:01:55.211Z,7.07
2018-04-08T18:04:21.516Z,7.40
2018-04-08T18:06:47.711Z,7.60
2018-04-08T18:09:13.882Z,7.27
2018-04-08T18:11:40.047Z,6.93
2018-04-08T18:14:06.205Z,7.90
2018-04-08T18:16:33.093Z,7.23
2018-04-08T18:18:59.252Z,7.50
2018-04-08T18:21:25.469Z,7.40
2018-04-08T18:23:51.660Z,7.43
2018-04-08T18:26:17.928Z,7.17
2018-04-08T18:28:44.529Z,7.43
2018-04-08T18:31:10.689Z,7.83
2018-04-08T18:33:36.859Z,8.27
2018-04-08T18:36:03.742Z,7.43
2018-04-08T18:38:29.884Z,7.10
2018-04-08T18:40:56.035Z,7.60
2018-04-08T18:43:22.186Z,7.13
2018-04-08T18:45:49.120Z,8.03
2018-04-08T18:48:16.561Z,7.30
2018-04-08T18:50:42.722Z,9.10
2018-04-08T18:53:08.918Z,7.60
2018-04-08T18:55:35.042Z,8.30
2018-04-08T18:58:01.365Z,7.20
2018-04-08T19:00:27.537Z,7.10
2018-04-08T19:02:53.731Z,7.23
2018-04-08T19:05:20.851Z,7.63
2018-04-08T19:07:47.039Z,8.63
2018-04-08T19:10:13.244Z,8.10
2018-04-08T19:12:41.176Z,8.60
2018-04-08T19:15:13.408Z,7.80
2018-04-08T19:17:45.769Z,8.10
2018-04-08T19:20:12.684Z,8.27
2018-04-08T19:22:38.854Z,8.53
2018-04-08T19:25:05.029Z,7.57
2018-04-08T19:27:35.165Z,7.40
2018-04-08T19:30:02.178Z,8.60
2018-04-08T19:32:28.340Z,9.93
2018-04-08T19:34:55.210Z,8.80
2018-04-08T19:37:21.342Z,8.17
2018-04-08T19:39:47.576Z,7.60
2018-04-08T19:42:13.786Z,8.27
2018-04-08T19:44:39.954Z,7.80
2018-04-08T19:47:06.088Z,9.10
2018-04-08T19:49:32.323Z,8.90
2018-04-08T19:51:58.553Z,9.60
2018-04-08T19:54:24.784Z,8.60
2018-04-08T19:56:51.011Z,9.50
2018-04-08T19:59:17.213Z,9.13
2018-04-08T20:01:43.346Z,9.23
2018-04-08T20:04:09.518Z,9.20
2018-04-08T20:06:36.382Z,9.63
2018-04-08T20:09:02.586Z,9.47
2018-04-08T20:11:28.770Z,10.23
2018-04-08T20:13:54.958Z,8.93
2018-04-08T20:16:21.180Z,9.23
2018-04-08T20:18:48.116Z,9.23
2018-04-08T20:21:15.058Z,8.70
2018-04-08T20:23:41.952Z,9.67
2018-04-08T20:26:08.150Z,9.20
2018-04-08T20:28:34.344Z,10.00
2018-04-08T20:31:01.249Z,9.70
2018-04-08T20:33:27.414Z,9.30
2018-04-08T20:35:53.580Z,8.90
2018-04-08T20:38:19.787Z,9.20
2018-04-08T20:40:46.691Z,9.33
2018-04-08T20:43:12.885Z,9.20
2018-04-08T20:45:39.136Z,9.37
2018-04-08T20:48:05.300Z,9.10
2018-04-08T20:50:31.457Z,9.33
2018-04-08T20:52:57.772Z,10.00
2018-04-08T20:55:24.691Z,9.60
2018-04-08T20:57:50.828Z,9.67
2018-04-08T21:00:17.002Z,9.97
2018-04-08T21:02:43.128Z,10.40
2018-04-08T21:05:09.272Z,9.00
2018-04-08T21:07:35.533Z,9.43
2018-04-08T21:10:01.757Z,9.73
2018-04-08T21:12:27.955Z,9.77
2018-04-08T21:14:54.248Z,10.07
2018-04-08T21:17:20.477Z,9.77
2018-04-08T21:19:46.638Z,10.57
2018-04-08T21:22:12.828Z,10.33
2018-04-08T21:24:39.774Z,10.47
2018-04-08T21:27:06.759Z,9.80
2018-04-08T21:29:32.970Z,9.70
2018-04-08T21:31:59.146Z,11.07
2018-04-08T21:34:25.400Z,10.53
2018-04-08T21:36:52.294Z,10.07
2018-04-08T21:39:18.450Z,10.17
2018-04-08T21:41:44.555Z,9.63
2018-04-08T21:44:10.702Z,10.20
2018-04-08T21:46:36.841Z,9.10
2018-04-08T21:49:03.728Z,10.20
2018-04-08T21:51:29.958Z,9.23
2018-04-08T21:53:56.110Z,10.07
2018-04-08T21:56:22.224Z,9.17
2018-04-08T21:58:49.096Z,10.20
2018-04-08T22:01:15.223Z,10.60
2018-04-08T22:03:41.370Z,10.07
2018-04-08T22:06:08.240Z,11.00
2018-04-08T22:08:34.405Z,10.17
2018-04-08T22:11:00.546Z,9.77
2018-04-08T22:13:26.665Z,9.50
2018-04-08T22:15:52.781Z,10.00
2018-04-08T22:18:18.930Z,10.73
2018-04-08T22:20:45.055Z,9.20
2018-04-08T22:23:11.985Z,9.90
2018-04-08T22:25:38.141Z,10.40
2018-04-08T22:28:05.008Z,10.23
2018-04-08T22:30:31.172Z,10.23
2018-04-08T22:32:57.404Z,9.80
2018-04-08T22:35:23.530Z,11.00
2018-04-08T22:37:49.703Z,11.57
2018-04-08T22:40:15.910Z,10.43
2018-04-08T22:42:49.839Z,10.40
2018-04-08T22:45:16.092Z,11.10
2018-04-08T22:47:42.265Z,11.10
2018-04-08T22:50:09.116Z,11.43
2018-04-08T22:52:36.037Z,10.87
2018-04-08T22:55:02.253Z,10.90
2018-04-08T22:57:28.423Z,10.80
2018-04-08T22:59:55.323Z,12.13
2018-04-08T23:02:21.482Z,11.23
2018-04-08T23:04:48.366Z,11.17
2018-04-08T23:07:14.516Z,11.50
2018-04-08T23:09:40.676Z,10.37
2018-04-08T23:12:07.651Z,13.53
2018-04-08T23:14:33.749Z,12.67
2018-04-08T23:17:00.612Z,12.10
2018-04-08T23:19:27.521Z,12.43
2018-04-08T23:21:53.666Z,11.47
2018-04-08T23:24:19.823Z,12.67
2018-04-08T23:26:46.002Z,12.37
2018-04-08T23:29:12.115Z,11.83
2018-04-08T23:31:38.215Z,12.20
2018-04-08T23:34:04.390Z,12.53
2018-04-08T23:36:30.595Z,11.73
2018-04-08T23:38:56.705Z,12.90
2018-04-08T23:41:42.210Z,12.57
2018-04-08T23:44:08.416Z,12.27
2018-04-08T23:46:34.530Z,12.17
2018-04-08T23:49:00.664Z,12.53
2018-04-08T23:51:26.801Z,13.07
2018-04-08T23:53:52.938Z,12.13
2018-04-08T23:56:19.081Z,13.27
2018-04-08T23:58:46.017Z,12.37
